createdAt,value
2018-12-06T00:00:27.412Z,90.5
2018-12-06T00:01:27.302Z,90.6
2018-12-06T00:02:27.191Z,90.6
2018-12-06T00:03:27.082Z,90.6
2018-12-06T00:04:26.976Z,90.7
2018-12-06T00:05:26.873Z,90.7
2018-12-06T00:06:26.800Z,90.7
2018-12-06T00:07:26.686Z,90.8
2018-12-06T00:08:26.554Z,90.8
2018-12-06T00:09:26.439Z,91.2
2018-12-06T00:10:26.751Z,90.9
2018-12-06T00:11:26.631Z,91
2018-12-06T00:12:26.531Z,90.9
2018-12-06T00:13:26.414Z,91
2018-12-06T00:14:26.307Z,90.8
2018-12-06T00:15:26.187Z,90.8
2018-12-06T00:16:26.171Z,90.8
2018-12-06T00:17:26.092Z,90.8
2018-12-06T00:18:25.978Z,90.7
2018-12-06T00:19:25.846Z,90.7
2018-12-06T00:20:26.164Z,90.7
2018-12-06T00:21:26.027Z,90.7
2018-12-06T00:22:25.950Z,90.6
2018-12-06T00:23:25.839Z,90
2018-12-06T00:24:25.714Z,89.3
2018-12-06T00:32:24.106Z,86.9
2018-12-06T00:38:22.611Z,86.8
2018-12-06T00:39:22.497Z,86.6
2018-12-06T00:40:22.779Z,86.9
2018-12-06T00:41:22.652Z,87.7
2018-12-06T00:42:22.551Z,87.7
2018-12-06T00:43:22.438Z,87.9
2018-12-06T00:44:22.348Z,88
2018-12-06T00:45:22.230Z,88.3
2018-12-06T00:46:22.187Z,88.6
2018-12-06T00:47:22.061Z,88.4
2018-12-06T00:48:21.956Z,89
2018-12-06T00:49:21.837Z,89
2018-12-06T00:50:22.136Z,89.1
2018-12-06T00:51:22.012Z,89
2018-12-06T00:52:21.881Z,89.2
2018-12-06T00:53:21.784Z,89.2
2018-12-06T00:54:21.656Z,88.5
2018-12-06T00:55:21.560Z,88.2
2018-12-06T00:56:21.432Z,88
2018-12-06T00:57:21.313Z,87.5
2018-12-06T00:59:20.914Z,86.6
2018-12-06T01:00:21.240Z,86.4
2018-12-06T01:01:23.614Z,87.1
2018-12-06T01:02:23.507Z,87.2
2018-12-06T01:03:23.399Z,87.4
2018-12-06T01:04:23.280Z,87.1
2018-12-06T01:05:23.183Z,87.6
2018-12-06T01:06:23.060Z,87.5
2018-12-06T01:07:22.933Z,87.8
2018-12-06T01:08:22.811Z,87.6
2018-12-06T01:09:22.702Z,87.7
2018-12-06T01:10:22.997Z,87.8
2018-12-06T01:11:22.911Z,88
2018-12-06T01:12:22.800Z,87.9
2018-12-06T01:13:22.681Z,87.9
2018-12-06T01:14:22.577Z,87.3
2018-12-06T01:15:22.458Z,86.9
2018-12-06T01:16:22.450Z,86.8
2018-12-06T01:17:22.331Z,86.7
2018-12-06T01:18:22.200Z,86.4
2018-12-06T01:19:22.081Z,86
2018-12-06T01:20:22.383Z,85.9
2018-12-06T01:21:22.307Z,86.5
2018-12-06T01:22:22.303Z,86.6
2018-12-06T01:23:22.182Z,86.4
2018-12-06T01:24:22.053Z,86.7
2018-12-06T01:25:21.931Z,86.5
2018-12-06T01:26:21.822Z,86.7
2018-12-06T01:27:21.746Z,86.9
2018-12-06T01:28:21.622Z,86.9
2018-12-06T01:29:21.501Z,86.9
2018-12-06T01:30:21.812Z,87.2
2018-12-06T01:31:21.685Z,87.2
2018-12-06T01:32:21.595Z,87.2
2018-12-06T01:33:21.482Z,87.9
2018-12-06T01:34:21.375Z,87.2
2018-12-06T01:35:21.267Z,86.7
2018-12-06T01:36:21.156Z,86.4
2018-12-06T01:37:21.067Z,86.1
2018-12-06T01:38:20.959Z,86
2018-12-06T01:39:20.856Z,86
2018-12-06T01:40:21.186Z,86.1
2018-12-06T01:41:21.086Z,85.8
2018-12-06T01:42:20.986Z,85.8
2018-12-06T01:43:20.936Z,85.9
2018-12-06T01:44:20.817Z,85.7
2018-12-06T01:45:20.714Z,85.6
2018-12-06T01:46:20.596Z,85.6
2018-12-06T01:47:20.490Z,85.7
2018-12-06T01:48:20.392Z,85.8
2018-12-06T01:49:20.281Z,86
2018-12-06T01:50:20.587Z,86.7
2018-12-06T01:51:20.554Z,86.6
2018-12-06T01:52:20.511Z,86.5
2018-12-06T01:53:20.427Z,86.4
2018-12-06T01:54:20.314Z,86.7
2018-12-06T01:55:20.185Z,86.8
2018-12-06T01:56:20.061Z,87
2018-12-06T01:57:19.939Z,87
2018-12-06T01:58:19.822Z,87.3
2018-12-06T01:59:19.719Z,87.5
2018-12-06T02:00:20.031Z,87.6
2018-12-06T02:01:19.946Z,87.7
2018-12-06T02:02:19.835Z,87.7
2018-12-06T02:03:19.723Z,87.8
2018-12-06T02:04:19.613Z,87.7
2018-12-06T02:05:19.511Z,87.8
2018-12-06T02:06:19.521Z,87.8
2018-12-06T02:07:19.416Z,87.9
2018-12-06T02:08:19.319Z,88
2018-12-06T02:09:19.215Z,88
2018-12-06T02:10:19.587Z,88
2018-12-06T02:11:19.467Z,88.7
2018-12-06T02:12:19.347Z,88.1
2018-12-06T02:13:21.801Z,88.2
2018-12-06T02:14:21.677Z,87.9
2018-12-06T02:15:21.577Z,86.8
2018-12-06T02:16:21.464Z,86.5
2018-12-06T02:17:21.344Z,86.5
2018-12-06T02:18:21.231Z,86.2
2018-12-06T02:19:21.117Z,85.9
2018-12-06T02:20:21.413Z,85.9
2018-12-06T02:21:21.317Z,86.7
2018-12-06T02:22:21.276Z,86.8
2018-12-06T02:23:21.167Z,86.6
2018-12-06T02:24:21.070Z,86.8
2018-12-06T02:25:20.946Z,86.6
2018-12-06T02:26:20.841Z,86.6
2018-12-06T02:27:20.721Z,86.7
2018-12-06T02:28:20.605Z,86.7
2018-12-06T02:29:20.492Z,87.2
2018-12-06T02:30:20.862Z,87
2018-12-06T02:31:20.791Z,87.3
2018-12-06T02:32:20.674Z,88
2018-12-06T02:33:20.579Z,88.1
2018-12-06T02:34:20.465Z,87.7
2018-12-06T02:35:20.383Z,87.7
2018-12-06T02:36:20.289Z,88.5
2018-12-06T02:37:20.171Z,88.9
2018-12-06T02:38:20.066Z,88.8
2018-12-06T02:39:19.968Z,89.1
2018-12-06T02:40:20.290Z,88.5
2018-12-06T02:41:20.200Z,88.6
2018-12-06T02:42:20.079Z,88.7
2018-12-06T02:43:19.987Z,88.8
2018-12-06T02:44:19.867Z,89
2018-12-06T02:45:19.900Z,89
2018-12-06T02:46:19.799Z,89.7
2018-12-06T02:47:19.718Z,89.6
2018-12-06T02:48:19.645Z,89.7
2018-12-06T02:49:19.530Z,89.8
2018-12-06T02:50:19.831Z,90.1
2018-12-06T02:51:19.750Z,90.1
2018-12-06T02:52:19.645Z,90.2
2018-12-06T02:53:19.549Z,90.2
2018-12-06T02:54:19.436Z,90.3
2018-12-06T02:55:19.323Z,90.4
2018-12-06T02:56:19.235Z,90.2
2018-12-06T02:57:19.123Z,90.4
2018-12-06T02:58:19.006Z,90.3
2018-12-06T02:59:18.901Z,90.3
2018-12-06T03:00:19.213Z,90.5
2018-12-06T03:01:19.100Z,90.5
2018-12-06T03:02:19.011Z,90.7
2018-12-06T03:03:18.927Z,90.8
2018-12-06T03:04:18.829Z,90.8
2018-12-06T03:05:18.745Z,91.2
2018-12-06T03:06:18.640Z,90.9
2018-12-06T03:07:18.555Z,91.1
2018-12-06T03:08:18.457Z,91.1
2018-12-06T03:09:18.358Z,91.1
2018-12-06T03:10:18.668Z,91.1
2018-12-06T03:11:18.571Z,91
2018-12-06T03:12:18.456Z,91
2018-12-06T03:13:18.384Z,91
2018-12-06T03:14:18.337Z,90.9
2018-12-06T03:15:18.236Z,91
2018-12-06T03:16:18.112Z,91.1
2018-12-06T03:17:17.989Z,91.1
2018-12-06T03:18:17.890Z,91.1
2018-12-06T03:19:17.800Z,90.9
2018-12-06T03:20:18.113Z,90.9
2018-12-06T03:21:18.024Z,90.8
2018-12-06T03:22:17.933Z,90.8
2018-12-06T03:23:17.819Z,90.8
2018-12-06T03:24:17.736Z,90.2
2018-12-06T03:25:17.645Z,90.2
2018-12-06T03:27:17.256Z,89.5
2018-12-06T03:28:17.272Z,89.5
2018-12-06T03:29:17.194Z,89.4
2018-12-06T03:30:17.558Z,89.1
2018-12-06T03:31:17.512Z,90
2018-12-06T03:32:17.418Z,90.1
2018-12-06T03:33:17.350Z,90.1
2018-12-06T03:34:17.232Z,90
2018-12-06T03:35:17.143Z,90.1
2018-12-06T03:36:17.044Z,90
2018-12-06T03:37:16.951Z,90.1
2018-12-06T03:38:16.879Z,90.1
2018-12-06T03:39:16.780Z,90.2
2018-12-06T03:40:17.144Z,90.2
2018-12-06T03:41:17.069Z,90.3
2018-12-06T03:42:16.981Z,90.4
2018-12-06T03:43:16.894Z,90.5
2018-12-06T03:44:16.786Z,90.4
2018-12-06T03:45:16.687Z,90.5
2018-12-06T03:46:16.594Z,90.6
2018-12-06T03:47:16.499Z,90.6
2018-12-06T03:48:16.421Z,90.6
2018-12-06T03:49:16.299Z,90.6
2018-12-06T03:50:16.714Z,90.8
2018-12-06T03:51:16.586Z,90.7
2018-12-06T03:52:16.474Z,90.6
2018-12-06T03:53:16.403Z,90.7
2018-12-06T03:54:16.319Z,90.6
2018-12-06T03:55:16.212Z,90.8
2018-12-06T03:56:16.097Z,90.8
2018-12-06T03:57:16.027Z,90.9
2018-12-06T03:58:15.934Z,90.6
2018-12-06T03:59:15.833Z,90.8
2018-12-06T04:00:16.177Z,90.8
2018-12-06T04:01:16.078Z,90.7
2018-12-06T04:02:15.976Z,90.8
2018-12-06T04:03:15.898Z,90.8
2018-12-06T04:04:15.792Z,90.7
2018-12-06T04:05:15.683Z,91
2018-12-06T04:06:15.571Z,90.8
2018-12-06T04:07:15.465Z,90.9
2018-12-06T04:08:15.372Z,90.8
2018-12-06T04:09:15.275Z,91.2
2018-12-06T04:10:15.547Z,91.3
2018-12-06T04:11:15.447Z,91.3
2018-12-06T04:12:15.349Z,91.5
2018-12-06T04:13:15.255Z,91.5
2018-12-06T04:14:15.165Z,91.2
2018-12-06T04:15:15.044Z,91.4
2018-12-06T04:16:14.927Z,91.3
2018-12-06T04:17:14.817Z,91.1
2018-12-06T04:18:14.708Z,91.4
2018-12-06T04:19:14.611Z,91.4
2018-12-06T04:20:14.927Z,91.4
2018-12-06T04:21:14.813Z,91.5
2018-12-06T04:22:14.691Z,91.4
2018-12-06T04:23:14.591Z,91.3
2018-12-06T04:24:14.495Z,91.4
2018-12-06T04:25:14.403Z,91.3
2018-12-06T04:26:14.276Z,91.4
2018-12-06T04:27:14.258Z,91.5
2018-12-06T04:28:14.150Z,91.5
2018-12-06T04:29:14.034Z,91.4
2018-12-06T04:30:14.378Z,91.4
2018-12-06T04:31:14.288Z,91.4
2018-12-06T04:32:14.175Z,91.3
2018-12-06T04:33:14.064Z,91.4
2018-12-06T04:34:13.984Z,91.3
2018-12-06T04:35:13.920Z,91.3
2018-12-06T04:36:16.561Z,91.3
2018-12-06T04:37:16.467Z,91.4
2018-12-06T04:38:16.367Z,91.3
2018-12-06T04:39:16.267Z,91.4
2018-12-06T04:40:16.650Z,91.3
2018-12-06T04:41:16.622Z,91.4
2018-12-06T04:42:16.490Z,91.4
2018-12-06T04:43:16.376Z,91.4
2018-12-06T04:44:16.300Z,91.4
2018-12-06T04:45:16.196Z,91.5
2018-12-06T04:46:16.098Z,91.6
2018-12-06T04:47:15.979Z,91.3
2018-12-06T04:48:22.943Z,91.4
2018-12-06T04:49:22.896Z,91.4
2018-12-06T04:50:23.289Z,91.5
2018-12-06T04:51:23.210Z,91.5
2018-12-06T04:52:23.098Z,91.3
2018-12-06T04:53:22.985Z,91.4
2018-12-06T04:54:22.872Z,91.5
2018-12-06T04:55:22.769Z,91.6
2018-12-06T04:56:22.688Z,91.7
2018-12-06T04:57:22.585Z,91.6
2018-12-06T04:58:22.477Z,91.6
2018-12-06T04:59:22.347Z,91.5
2018-12-06T05:00:26.182Z,91.7
2018-12-06T05:01:26.100Z,91.6
2018-12-06T05:02:25.982Z,91.7
2018-12-06T05:03:25.864Z,91.7
2018-12-06T05:04:25.744Z,91.5
2018-12-06T05:05:25.658Z,91.4
2018-12-06T05:06:25.539Z,91.5
2018-12-06T05:07:25.435Z,91.4
2018-12-06T05:08:25.324Z,91.4
2018-12-06T05:09:25.306Z,91.3
2018-12-06T05:10:25.598Z,91.4
2018-12-06T05:11:25.489Z,91.4
2018-12-06T05:12:25.409Z,91.3
2018-12-06T05:13:25.309Z,91.3
2018-12-06T05:14:25.204Z,91
2018-12-06T05:15:25.098Z,90.5
2018-12-06T05:17:24.726Z,90.1
2018-12-06T05:18:24.697Z,89.6
2018-12-06T05:19:24.604Z,90
2018-12-06T05:20:24.940Z,89.7
2018-12-06T05:21:24.833Z,90.2
2018-12-06T05:22:24.792Z,90
2018-12-06T05:23:24.707Z,90
2018-12-06T05:24:24.604Z,90
2018-12-06T05:25:24.492Z,90.1
2018-12-06T05:26:24.362Z,90.1
2018-12-06T05:27:24.247Z,90
2018-12-06T05:28:24.138Z,90.1
2018-12-06T05:29:24.034Z,90.1
2018-12-06T05:30:24.403Z,90.1
2018-12-06T05:31:24.292Z,90.2
2018-12-06T05:32:24.178Z,90.2
2018-12-06T05:33:24.089Z,90.3
2018-12-06T05:34:23.988Z,90.3
2018-12-06T05:35:23.895Z,90.2
2018-12-06T05:36:23.774Z,90.2
2018-12-06T05:37:23.675Z,90.3
2018-12-06T05:38:23.548Z,90.2
2018-12-06T05:39:23.437Z,90.3
2018-12-06T05:40:23.858Z,90.3
2018-12-06T05:41:23.744Z,90.3
2018-12-06T05:42:23.620Z,90.4
2018-12-06T05:43:23.496Z,90.3
2018-12-06T05:44:23.387Z,90.2
2018-12-06T05:45:23.304Z,89.7
2018-12-06T05:46:23.253Z,89.3
2018-12-06T05:47:23.130Z,89
2018-12-06T05:48:22.999Z,88.7
2018-12-06T05:49:22.875Z,88.7
2018-12-06T05:51:22.916Z,88.3
2018-12-06T05:52:22.798Z,88.1
2018-12-06T05:53:22.672Z,88
2018-12-06T05:54:22.548Z,88.1
2018-12-06T05:55:22.439Z,87.9
2018-12-06T05:56:22.338Z,88.4
2018-12-06T05:57:22.224Z,88.9
2018-12-06T05:58:22.096Z,89.1
2018-12-06T05:59:22.031Z,89
2018-12-06T06:00:22.332Z,88.9
2018-12-06T06:01:22.252Z,89.2
2018-12-06T06:02:22.139Z,88.9
2018-12-06T06:03:22.110Z,89
2018-12-06T06:04:22.016Z,89
2018-12-06T06:05:21.906Z,89
2018-12-06T06:06:21.768Z,89
2018-12-06T06:07:21.689Z,89.3
2018-12-06T06:08:21.583Z,89.3
2018-12-06T06:09:21.460Z,89.9
2018-12-06T06:10:21.761Z,89.6
2018-12-06T06:11:21.644Z,89.5
2018-12-06T06:12:21.539Z,89.7
2018-12-06T06:13:21.435Z,89.7
2018-12-06T06:14:21.324Z,89.8
2018-12-06T06:15:21.212Z,90
2018-12-06T06:16:21.084Z,90
2018-12-06T06:17:20.982Z,89.8
2018-12-06T06:18:20.858Z,89.8
2018-12-06T06:19:20.756Z,89.8
2018-12-06T06:20:21.204Z,90
2018-12-06T06:21:21.090Z,90
2018-12-06T06:22:22.352Z,90
2018-12-06T06:23:22.246Z,90
2018-12-06T06:24:22.133Z,90.1
2018-12-06T06:25:22.037Z,90.2
2018-12-06T06:26:22.018Z,90.1
2018-12-06T06:27:21.917Z,90.2
2018-12-06T06:28:21.813Z,90.2
2018-12-06T06:29:21.696Z,90.3
2018-12-06T06:30:22.061Z,90.3
2018-12-06T06:31:21.942Z,90.4
2018-12-06T06:32:21.852Z,90.4
2018-12-06T06:33:21.744Z,90.4
2018-12-06T06:34:21.648Z,90.4
2018-12-06T06:35:21.538Z,90.5
2018-12-06T06:36:21.421Z,90.5
2018-12-06T06:37:21.311Z,90.6
2018-12-06T06:38:21.205Z,90.6
2018-12-06T06:39:21.092Z,90.5
2018-12-06T06:40:21.414Z,90.7
2018-12-06T06:41:21.351Z,90.6
2018-12-06T06:42:21.238Z,90.4
2018-12-06T06:43:21.134Z,90.4
2018-12-06T06:44:21.014Z,90.3
2018-12-06T06:45:20.910Z,90.2
2018-12-06T06:46:20.794Z,90.1
2018-12-06T06:47:20.692Z,89.7
2018-12-06T06:48:20.612Z,89.5
2018-12-06T06:49:20.510Z,88.8
2018-12-06T06:50:20.838Z,88.7
2018-12-06T06:51:20.743Z,89.2
2018-12-06T06:52:20.649Z,89.2
2018-12-06T06:53:20.548Z,89
2018-12-06T06:54:20.504Z,88.8
2018-12-06T06:55:20.414Z,89.2
2018-12-06T06:56:20.298Z,88.7
2018-12-06T06:57:20.202Z,88.7
2018-12-06T06:58:20.084Z,88.8
2018-12-06T06:59:26.947Z,89.4
2018-12-06T07:00:27.256Z,89.3
2018-12-06T07:01:27.136Z,89.4
2018-12-06T07:02:27.026Z,89.8
2018-12-06T07:03:26.902Z,90
2018-12-06T07:04:26.811Z,90
2018-12-06T07:05:26.685Z,90.1
2018-12-06T07:06:26.690Z,90.1
2018-12-06T07:07:26.584Z,90.3
2018-12-06T07:08:26.469Z,90.4
2018-12-06T07:09:26.388Z,90.4
2018-12-06T07:10:26.817Z,90.5
2018-12-06T07:11:26.699Z,90.6
2018-12-06T07:12:26.593Z,90.8
2018-12-06T07:13:26.481Z,90.6
2018-12-06T07:14:26.364Z,90.7
2018-12-06T07:15:26.265Z,90.6
2018-12-06T07:16:26.158Z,90.8
2018-12-06T07:17:26.050Z,90.8
2018-12-06T07:18:25.939Z,90.8
2018-12-06T07:19:25.823Z,90.8
2018-12-06T07:20:26.149Z,90.9
2018-12-06T07:21:26.055Z,90.8
2018-12-06T07:22:25.955Z,90.7
2018-12-06T07:23:25.843Z,90.9
2018-12-06T07:24:25.740Z,90.9
2018-12-06T07:25:25.655Z,90.9
2018-12-06T07:26:25.541Z,90.8
2018-12-06T07:27:25.437Z,90.8
2018-12-06T07:28:25.324Z,90.8
2018-12-06T07:29:25.224Z,90.8
2018-12-06T07:30:25.544Z,90.8
2018-12-06T07:31:25.432Z,91.1
2018-12-06T07:32:25.387Z,90.8
2018-12-06T07:33:25.263Z,90.8
2018-12-06T07:34:25.151Z,90.6
2018-12-06T07:35:25.047Z,90.7
2018-12-06T07:36:24.923Z,90.6
2018-12-06T07:37:24.814Z,90.6
2018-12-06T07:38:24.699Z,90.5
2018-12-06T07:39:24.574Z,90.6
2018-12-06T07:40:24.911Z,90.6
2018-12-06T07:41:24.814Z,90.6
2018-12-06T07:42:24.706Z,90.6
2018-12-06T07:43:24.603Z,90.6
2018-12-06T07:44:24.502Z,90.6
2018-12-06T07:45:24.385Z,91
2018-12-06T07:46:24.298Z,90.5
2018-12-06T07:47:24.190Z,90.6
2018-12-06T07:48:24.089Z,90.5
2018-12-06T07:49:23.981Z,90.6
2018-12-06T07:50:24.309Z,90.5
2018-12-06T07:51:24.207Z,90.5
2018-12-06T07:52:24.110Z,90.5
2018-12-06T07:53:24.009Z,90.8
2018-12-06T07:54:23.993Z,90.4
2018-12-06T07:55:23.873Z,90.4
2018-12-06T07:56:23.762Z,90.3
2018-12-06T07:57:23.655Z,90.8
2018-12-06T07:58:23.539Z,90.5
2018-12-06T07:59:23.432Z,90.4
2018-12-06T08:00:23.726Z,90.4
2018-12-06T08:01:23.623Z,90.4
2018-12-06T08:02:23.530Z,90.5
2018-12-06T08:03:23.447Z,90.4
2018-12-06T08:04:23.357Z,90.4
2018-12-06T08:05:23.253Z,90.5
2018-12-06T08:06:23.135Z,90.6
2018-12-06T08:07:23.023Z,90.5
2018-12-06T08:08:22.929Z,90.4
2018-12-06T08:09:22.811Z,90.4
2018-12-06T08:10:23.116Z,90.4
2018-12-06T08:11:23.089Z,90.5
2018-12-06T08:12:22.991Z,90.4
2018-12-06T08:13:22.920Z,90.3
2018-12-06T08:14:22.805Z,90.2
2018-12-06T08:15:22.691Z,89.6
2018-12-06T08:16:22.573Z,89.5
2018-12-06T08:17:22.441Z,89
2018-12-06T08:18:22.325Z,89
2018-12-06T08:19:22.230Z,88.6
2018-12-06T08:20:22.535Z,88.5
2018-12-06T08:21:22.435Z,88.1
2018-12-06T08:22:22.371Z,88.6
2018-12-06T08:23:22.282Z,88.6
2018-12-06T08:24:22.200Z,88.5
2018-12-06T08:25:22.117Z,88.2
2018-12-06T08:26:22.023Z,87.7
2018-12-06T08:27:21.917Z,88
2018-12-06T08:28:21.819Z,87.7
2018-12-06T08:29:21.725Z,87.2
2018-12-06T08:30:22.033Z,87.6
2018-12-06T08:31:21.927Z,86.9
2018-12-06T08:32:21.845Z,87.3
2018-12-06T08:33:21.739Z,87.4
2018-12-06T08:34:21.692Z,87.3
2018-12-06T08:35:21.593Z,87.1
2018-12-06T08:36:21.483Z,86.9
2018-12-06T08:37:21.375Z,87
2018-12-06T08:38:21.260Z,86.9
2018-12-06T08:39:21.145Z,87
2018-12-06T08:40:21.486Z,86.2
2018-12-06T08:41:21.359Z,86.6
2018-12-06T08:42:21.252Z,86.7
2018-12-06T08:43:21.183Z,86.5
2018-12-06T08:44:22.253Z,86.7
2018-12-06T08:45:22.151Z,86.6
2018-12-06T08:46:22.039Z,86.3
2018-12-06T08:47:21.919Z,86.2
2018-12-06T08:48:21.840Z,86.1
2018-12-06T08:49:21.743Z,85.5
2018-12-06T08:50:22.083Z,85.7
2018-12-06T08:51:21.983Z,85.8
2018-12-06T08:52:21.947Z,85.6
2018-12-06T08:53:21.848Z,85.5
2018-12-06T08:54:21.741Z,85.7
2018-12-06T08:55:21.619Z,85.4
2018-12-06T08:56:21.517Z,85.5
2018-12-06T08:57:21.415Z,85.7
2018-12-06T08:58:21.323Z,86.1
2018-12-06T08:59:21.217Z,87.2
2018-12-06T09:00:21.515Z,86.7
2018-12-06T09:01:21.433Z,87.1
2018-12-06T09:02:21.339Z,87
2018-12-06T09:03:21.237Z,87.1
2018-12-06T09:04:21.145Z,87.3
2018-12-06T09:05:21.042Z,87.4
2018-12-06T09:06:20.924Z,87.3
2018-12-06T09:07:20.837Z,87.9
2018-12-06T09:08:20.751Z,87.8
2018-12-06T09:09:20.637Z,87.9
2018-12-06T09:10:20.942Z,88.4
2018-12-06T09:11:20.819Z,88.2
2018-12-06T09:12:20.798Z,88.3
2018-12-06T09:13:20.682Z,88.5
2018-12-06T09:14:20.568Z,88.3
2018-12-06T09:15:20.558Z,88.7
2018-12-06T09:16:20.440Z,88.5
2018-12-06T09:17:20.346Z,88.6
2018-12-06T09:18:20.244Z,88.7
2018-12-06T09:19:20.150Z,88.9
2018-12-06T09:20:20.486Z,89
2018-12-06T09:21:20.378Z,89.6
2018-12-06T09:22:20.282Z,89.5
2018-12-06T09:23:20.190Z,89.4
2018-12-06T09:24:20.085Z,89.2
2018-12-06T09:25:22.111Z,89
2018-12-06T09:26:22.003Z,88.7
2018-12-06T09:27:21.921Z,88.7
2018-12-06T09:28:21.818Z,88.5
2018-12-06T09:29:21.716Z,87.6
2018-12-06T09:30:22.022Z,88
2018-12-06T09:31:21.910Z,88.3
2018-12-06T09:32:21.838Z,88
2018-12-06T09:33:21.742Z,87.9
2018-12-06T09:34:21.630Z,88
2018-12-06T09:35:21.532Z,87.7
2018-12-06T09:36:21.432Z,87.5
2018-12-06T09:37:21.314Z,87.6
2018-12-06T09:38:21.218Z,87.9
2018-12-06T09:39:21.125Z,87.9
2018-12-06T09:40:21.432Z,87.8
2018-12-06T09:41:21.326Z,88.1
2018-12-06T09:42:21.213Z,87.9
2018-12-06T09:43:21.128Z,88.1
2018-12-06T09:44:21.006Z,88
2018-12-06T09:45:20.886Z,87.9
2018-12-06T09:46:20.777Z,87.1
2018-12-06T09:47:20.662Z,87.1
2018-12-06T09:48:20.585Z,86.8
2018-12-06T09:49:20.485Z,86.7
2018-12-06T09:50:20.788Z,86.7
2018-12-06T09:51:20.669Z,86.9
2018-12-06T09:52:20.567Z,87
2018-12-06T09:53:20.490Z,86.9
2018-12-06T09:54:20.404Z,86.8
2018-12-06T09:55:20.306Z,86.5
2018-12-06T09:56:20.198Z,85.7
2018-12-06T09:57:20.086Z,85.8
2018-12-06T09:58:19.994Z,86.2
2018-12-06T09:59:19.908Z,87
2018-12-06T10:00:20.242Z,84.5
2018-12-06T10:01:20.116Z,85.6
2018-12-06T10:02:20.001Z,86.1
2018-12-06T10:03:19.882Z,86.6
2018-12-06T10:04:19.758Z,86.6
2018-12-06T10:05:19.648Z,86.8
2018-12-06T10:06:19.569Z,87.1
2018-12-06T10:07:19.454Z,87.1
2018-12-06T10:08:19.348Z,87.1
2018-12-06T10:09:19.224Z,87.2
2018-12-06T10:10:19.577Z,87.1
2018-12-06T10:11:19.463Z,86.9
2018-12-06T10:12:19.349Z,86.5
2018-12-06T10:13:19.255Z,86.2
2018-12-06T10:14:20.409Z,86.5
2018-12-06T10:15:20.349Z,86.7
2018-12-06T10:16:20.233Z,86.6
2018-12-06T10:17:20.116Z,87
2018-12-06T10:18:20.031Z,86.9
2018-12-06T10:19:21.978Z,86.8
2018-12-06T10:20:22.302Z,87.4
2018-12-06T10:21:22.185Z,86.4
2018-12-06T10:22:22.059Z,86.2
2018-12-06T10:23:21.969Z,85.9
2018-12-06T10:24:21.868Z,86.2
2018-12-06T10:25:21.752Z,86.2
2018-12-06T10:26:21.691Z,86.5
2018-12-06T10:27:21.580Z,86.5
2018-12-06T10:28:21.491Z,86.6
2018-12-06T10:29:21.381Z,86.6
2018-12-06T10:30:21.701Z,87
2018-12-06T10:31:21.634Z,86.8
2018-12-06T10:32:21.607Z,86.2
2018-12-06T10:33:21.571Z,86.7
2018-12-06T10:34:21.474Z,86.7
2018-12-06T10:35:21.362Z,86.1
2018-12-06T10:36:21.245Z,86.6
2018-12-06T10:37:21.149Z,86.6
2018-12-06T10:38:21.050Z,87
2018-12-06T10:39:20.930Z,87.1
2018-12-06T10:40:21.255Z,87.2
2018-12-06T10:41:21.162Z,86.8
2018-12-06T10:42:21.071Z,86.6
2018-12-06T10:43:20.963Z,86.6
2018-12-06T10:44:20.844Z,86.5
2018-12-06T10:45:20.725Z,86.8
2018-12-06T10:46:20.649Z,86.5
2018-12-06T10:47:20.535Z,86.7
2018-12-06T10:48:20.443Z,87
2018-12-06T10:49:20.346Z,86.1
2018-12-06T10:50:20.665Z,86.1
2018-12-06T10:51:20.545Z,86.5
2018-12-06T10:52:20.447Z,86.6
2018-12-06T10:53:20.373Z,86.8
2018-12-06T10:54:20.247Z,86.8
2018-12-06T10:55:20.148Z,86.6
2018-12-06T10:56:20.037Z,86.4
2018-12-06T10:57:20.019Z,86.4
2018-12-06T10:58:19.939Z,85.6
2018-12-06T10:59:19.827Z,86.1
2018-12-06T11:00:20.139Z,86.3
2018-12-06T11:01:20.042Z,86.1
2018-12-06T11:02:19.935Z,86.5
2018-12-06T11:03:19.831Z,86.3
2018-12-06T11:04:19.747Z,86.2
2018-12-06T11:05:19.624Z,85.6
2018-12-06T11:06:19.504Z,85.8
2018-12-06T11:07:19.391Z,86
2018-12-06T11:08:19.292Z,86.4
2018-12-06T11:09:19.200Z,86.1
2018-12-06T11:10:19.555Z,85.8
2018-12-06T11:11:19.444Z,86.1
2018-12-06T11:12:19.326Z,85.8
2018-12-06T11:13:19.228Z,86.1
2018-12-06T11:14:19.108Z,86
2018-12-06T11:15:18.996Z,85.5
2018-12-06T11:16:18.893Z,85.6
2018-12-06T11:17:18.785Z,86.1
2018-12-06T11:18:18.685Z,85.4
2018-12-06T11:19:18.588Z,86.3
2018-12-06T11:20:18.958Z,85.6
2018-12-06T11:21:18.844Z,85.8
2018-12-06T11:22:18.744Z,85.9
2018-12-06T11:23:18.631Z,86.1
2018-12-06T11:24:18.536Z,86.1
2018-12-06T11:25:18.450Z,85.9
2018-12-06T11:26:18.332Z,85.8
2018-12-06T11:27:18.216Z,85.2
2018-12-06T11:28:18.101Z,85.5
2018-12-06T11:29:17.979Z,85.7
2018-12-06T11:30:18.331Z,84.7
2018-12-06T11:31:18.220Z,85.3
2018-12-06T11:32:18.128Z,84.9
2018-12-06T11:33:18.010Z,85.3
2018-12-06T11:34:17.888Z,84.9
2018-12-06T11:35:17.793Z,85.1
2018-12-06T11:36:17.698Z,85.2
2018-12-06T11:37:17.707Z,85.2
2018-12-06T11:38:17.582Z,84.9
2018-12-06T11:39:17.495Z,85.2
2018-12-06T11:40:17.799Z,84
2018-12-06T11:41:17.709Z,84.3
2018-12-06T11:42:19.472Z,84.8
2018-12-06T11:43:19.380Z,84.9
2018-12-06T11:44:19.432Z,84.7
2018-12-06T11:45:19.312Z,84.8
2018-12-06T11:46:19.218Z,84.7
2018-12-06T11:47:19.108Z,84.6
2018-12-06T11:48:18.984Z,84.4
2018-12-06T11:49:27.018Z,84.3
2018-12-06T11:50:27.320Z,84.5
2018-12-06T11:51:27.251Z,84.5
2018-12-06T11:52:27.142Z,83.5
2018-12-06T11:53:27.058Z,83.4
2018-12-06T11:54:26.950Z,83.4
2018-12-06T11:55:27.360Z,82.9
2018-12-06T11:56:27.576Z,83
2018-12-06T11:57:27.480Z,82.7
2018-12-06T11:58:27.358Z,83
2018-12-06T11:59:27.248Z,83
2018-12-06T12:00:27.552Z,83.2
2018-12-06T12:01:27.458Z,82.6
2018-12-06T12:02:27.369Z,82.7
2018-12-06T12:03:27.249Z,82.7
2018-12-06T12:04:27.152Z,82.5
2018-12-06T12:05:27.030Z,83
2018-12-06T12:06:26.907Z,82.3
2018-12-06T12:07:26.812Z,82.5
2018-12-06T12:08:26.711Z,81.9
2018-12-06T12:09:26.602Z,82.2
2018-12-06T12:10:26.916Z,82.5
2018-12-06T12:11:26.851Z,82
2018-12-06T12:12:26.766Z,82.5
2018-12-06T12:13:26.652Z,82.2
2018-12-06T12:14:26.580Z,82.6
2018-12-06T12:15:26.460Z,82.7
2018-12-06T12:16:26.354Z,82.5
2018-12-06T12:17:26.256Z,82.8
2018-12-06T12:18:26.152Z,83
2018-12-06T12:19:26.039Z,82.3
2018-12-06T12:20:26.338Z,82.3
2018-12-06T12:21:26.220Z,81.9
2018-12-06T12:22:26.118Z,82.6
2018-12-06T12:23:26.023Z,82.7
2018-12-06T12:24:25.920Z,82
2018-12-06T12:25:25.818Z,82.3
2018-12-06T12:26:25.714Z,82.5
2018-12-06T12:27:25.638Z,82.4
2018-12-06T12:28:25.538Z,82.5
2018-12-06T12:29:25.435Z,82.4
2018-12-06T12:30:25.757Z,82.5
2018-12-06T12:31:25.749Z,81.9
2018-12-06T12:32:25.662Z,81.9
2018-12-06T12:33:25.556Z,82.3
2018-12-06T12:34:25.463Z,81.8
2018-12-06T12:35:25.354Z,81.8
2018-12-06T12:36:25.254Z,81.2
2018-12-06T12:37:25.143Z,81.5
2018-12-06T12:38:25.018Z,81.9
2018-12-06T12:39:24.912Z,81.9
2018-12-06T12:40:25.221Z,81.4
2018-12-06T12:41:25.114Z,81.9
2018-12-06T12:42:25.010Z,81.5
2018-12-06T12:43:24.912Z,80.5
2018-12-06T12:44:24.818Z,80.5
2018-12-06T12:45:24.710Z,80.9
2018-12-06T12:46:24.601Z,81.5
2018-12-06T12:47:24.478Z,81.8
2018-12-06T12:48:24.383Z,81.8
2018-12-06T12:49:24.294Z,81.1
2018-12-06T12:50:24.606Z,81.8
2018-12-06T12:51:24.488Z,81
2018-12-06T12:52:24.353Z,81.5
2018-12-06T12:53:24.262Z,81.6
2018-12-06T12:54:24.181Z,81.8
2018-12-06T12:55:24.071Z,81.7
2018-12-06T12:56:24.044Z,81.1
2018-12-06T12:57:23.923Z,80.9
2018-12-06T12:58:25.717Z,80.9
2018-12-06T12:59:25.640Z,80.9
2018-12-06T13:00:25.961Z,81.2
2018-12-06T13:01:25.870Z,81
2018-12-06T13:02:25.785Z,81.1
2018-12-06T13:03:25.781Z,81
2018-12-06T13:04:25.686Z,81.1
2018-12-06T13:05:25.582Z,81.4
2018-12-06T13:06:25.485Z,81.1
2018-12-06T13:07:25.358Z,80.6
2018-12-06T13:08:25.237Z,81.1
2018-12-06T13:09:25.136Z,81.4
2018-12-06T13:10:25.425Z,81.6
2018-12-06T13:11:25.323Z,81.6
2018-12-06T13:12:25.211Z,81.8
2018-12-06T13:13:25.118Z,81.6
2018-12-06T13:14:24.997Z,81.7
2018-12-06T13:15:24.917Z,81
2018-12-06T13:16:24.811Z,80.7
2018-12-06T13:17:24.686Z,80.8
2018-12-06T13:18:24.584Z,81.4
2018-12-06T13:19:24.492Z,81.6
2018-12-06T13:20:24.897Z,81
2018-12-06T13:21:24.799Z,81.1
2018-12-06T13:22:24.673Z,81.3
2018-12-06T13:23:24.550Z,81
2018-12-06T13:24:24.442Z,81.2
2018-12-06T13:25:24.369Z,81.3
2018-12-06T13:26:24.263Z,80.8
2018-12-06T13:27:24.149Z,81.1
2018-12-06T13:28:24.027Z,81.5
2018-12-06T13:29:23.905Z,81.6
2018-12-06T13:30:24.207Z,81.7
2018-12-06T13:31:24.099Z,81.4
2018-12-06T13:32:23.981Z,81.7
2018-12-06T13:33:23.857Z,81.8
2018-12-06T13:34:23.732Z,82
2018-12-06T13:35:23.623Z,81.9
2018-12-06T13:36:23.525Z,81.8
2018-12-06T13:37:23.405Z,81.7
2018-12-06T13:38:23.295Z,81.7
2018-12-06T13:39:23.189Z,81.9
2018-12-06T13:40:23.508Z,81.8